createdAt,value
2017-08-12T00:01:07.236Z,12.30
2017-08-12T00:03:33.532Z,11.90
2017-08-12T00:06:00.568Z,10.80
2017-08-12T00:08:27.586Z,11.23
2017-08-12T00:10:53.887Z,11.90
2017-08-12T00:13:20.157Z,11.40
2017-08-12T00:15:46.439Z,10.20
2017-08-12T00:18:12.707Z,10.37
2017-08-12T00:20:39.007Z,11.63
2017-08-12T00:23:05.281Z,11.63
2017-08-12T00:25:31.559Z,11.60
2017-08-12T00:27:57.832Z,12.00
2017-08-12T00:30:24.097Z,11.97
2017-08-12T00:32:51.121Z,13.30
2017-08-12T00:35:18.154Z,12.10
2017-08-12T00:37:44.470Z,14.03
2017-08-12T00:40:10.776Z,12.67
2017-08-12T00:42:37.060Z,11.80
2017-08-12T00:45:03.346Z,13.83
2017-08-12T00:47:29.631Z,12.60
2017-08-12T00:49:56.667Z,13.03
2017-08-12T00:52:23.700Z,13.13
2017-08-12T00:54:50.554Z,13.30
2017-08-12T00:57:16.845Z,13.90
2017-08-12T00:59:43.125Z,13.63
2017-08-12T01:02:10.136Z,15.17
2017-08-12T01:04:36.458Z,15.97
2017-08-12T01:07:02.744Z,15.20
2017-08-12T01:09:29.742Z,15.67
2017-08-12T01:11:56.007Z,15.10
2017-08-12T01:14:23.059Z,17.10
2017-08-12T01:16:50.269Z,16.97
2017-08-12T01:19:17.506Z,17.83
2017-08-12T01:21:43.773Z,17.70
2017-08-12T01:24:10.373Z,18.07
2017-08-12T01:26:36.637Z,17.53
2017-08-12T01:29:02.957Z,17.57
2017-08-12T01:31:29.216Z,17.40
2017-08-12T01:33:55.485Z,17.03
2017-08-12T01:36:21.796Z,17.80
2017-08-12T01:38:48.049Z,17.97
2017-08-12T01:41:14.316Z,16.40
2017-08-12T01:43:40.605Z,16.73
2017-08-12T01:46:06.895Z,16.80
2017-08-12T01:48:33.173Z,16.00
2017-08-12T01:50:59.452Z,15.13
2017-08-12T01:53:26.448Z,16.90
2017-08-12T01:55:52.724Z,17.13
2017-08-12T01:58:19.730Z,14.53
2017-08-12T02:00:46.015Z,14.13
2017-08-12T02:03:12.294Z,14.37
2017-08-12T02:05:38.564Z,12.37
2017-08-12T02:08:05.394Z,12.07
2017-08-12T02:10:32.540Z,11.57
2017-08-12T02:12:58.952Z,11.47
2017-08-12T02:15:25.255Z,11.17
2017-08-12T02:17:51.531Z,11.70
2017-08-12T02:20:18.540Z,9.97
2017-08-12T02:22:44.811Z,10.90
2017-08-12T02:25:11.821Z,9.53
2017-08-12T02:27:38.095Z,9.67
2017-08-12T02:30:04.359Z,8.20
2017-08-12T02:32:30.650Z,8.50
2017-08-12T02:34:57.656Z,8.73
2017-08-12T02:37:23.931Z,9.93
2017-08-12T02:39:50.937Z,8.87
2017-08-12T02:42:17.196Z,9.90
2017-08-12T02:44:44.216Z,10.03
2017-08-12T02:47:10.461Z,9.70
2017-08-12T02:49:36.733Z,10.27
2017-08-12T02:52:03.010Z,9.53
2017-08-12T02:54:29.301Z,9.50
2017-08-12T02:56:55.568Z,9.90
2017-08-12T02:59:21.837Z,9.63
2017-08-12T03:01:48.090Z,10.03
2017-08-12T03:04:14.364Z,9.73
2017-08-12T03:06:41.378Z,9.13
2017-08-12T03:09:07.656Z,9.13
2017-08-12T03:11:34.648Z,8.63
2017-08-12T03:14:00.904Z,7.93
2017-08-12T03:16:27.168Z,8.30
2017-08-12T03:18:53.437Z,7.83
2017-08-12T03:21:19.715Z,7.50
2017-08-12T03:23:46.719Z,7.00
2017-08-12T03:26:13.002Z,7.60
2017-08-12T03:28:39.282Z,6.73
2017-08-12T03:31:05.563Z,6.80
2017-08-12T03:33:31.845Z,7.90
2017-08-12T03:35:58.124Z,7.67
2017-08-12T03:38:24.376Z,7.53
2017-08-12T03:40:50.637Z,6.70
2017-08-12T03:43:16.912Z,7.20
2017-08-12T03:45:43.225Z,7.67
2017-08-12T03:48:10.217Z,7.20
2017-08-12T03:50:36.472Z,7.00
2017-08-12T03:53:02.790Z,6.50
2017-08-12T03:55:29.069Z,7.50
2017-08-12T03:57:55.325Z,6.37
2017-08-12T04:00:21.592Z,6.80
2017-08-12T04:02:48.626Z,6.83
2017-08-12T04:05:15.944Z,6.93
2017-08-12T04:07:42.227Z,7.20
2017-08-12T04:10:09.254Z,7.17
2017-08-12T04:12:35.569Z,6.47
2017-08-12T04:15:01.858Z,6.30
2017-08-12T04:17:28.144Z,6.60
2017-08-12T04:19:54.435Z,6.60
2017-08-12T04:22:20.703Z,5.90
2017-08-12T04:24:47.010Z,5.67
2017-08-12T04:27:13.282Z,5.90
2017-08-12T04:29:40.297Z,5.93
2017-08-12T04:32:06.561Z,6.13
2017-08-12T04:34:33.583Z,5.63
2017-08-12T04:36:59.848Z,5.43
2017-08-12T04:39:26.121Z,5.10
2017-08-12T04:41:52.386Z,5.63
2017-08-12T04:44:18.655Z,5.77
2017-08-12T04:46:44.920Z,5.80
2017-08-12T04:49:11.204Z,5.33
2017-08-12T04:51:37.473Z,4.90
2017-08-12T04:54:03.777Z,5.53
2017-08-12T04:56:30.042Z,5.87
2017-08-12T04:58:56.317Z,5.57
2017-08-12T05:01:22.640Z,5.30
2017-08-12T05:03:48.905Z,5.40
2017-08-12T05:06:15.174Z,6.17
2017-08-12T05:08:41.439Z,6.47
2017-08-12T05:11:07.728Z,6.00
2017-08-12T05:13:34.775Z,6.53
2017-08-12T05:16:01.041Z,8.10
2017-08-12T05:18:27.300Z,8.20
2017-08-12T05:20:53.578Z,9.20
2017-08-12T05:23:19.876Z,10.13
2017-08-12T05:25:46.196Z,10.30
2017-08-12T05:28:12.526Z,11.40
2017-08-12T05:30:38.776Z,10.87
2017-08-12T05:33:05.041Z,11.30
2017-08-12T05:35:31.316Z,12.20
2017-08-12T05:37:57.594Z,12.40
2017-08-12T05:40:23.865Z,12.03
2017-08-12T05:42:50.148Z,12.00
2017-08-12T05:45:17.158Z,11.67
2017-08-12T05:47:43.511Z,11.80
2017-08-12T05:50:09.802Z,11.37
2017-08-12T05:52:36.077Z,11.10
2017-08-12T05:55:03.147Z,12.27
2017-08-12T05:57:29.572Z,11.77
2017-08-12T05:59:55.896Z,11.57
2017-08-12T06:02:22.946Z,10.20
2017-08-12T06:04:49.354Z,9.97
2017-08-12T06:07:16.412Z,10.73
2017-08-12T06:09:43.599Z,10.67
2017-08-12T06:12:09.883Z,10.60
2017-08-12T06:14:36.150Z,11.70
2017-08-12T06:17:02.471Z,11.93
2017-08-12T06:19:28.829Z,14.07
2017-08-12T06:21:55.089Z,13.43
2017-08-12T06:24:21.363Z,14.87
2017-08-12T06:26:47.629Z,16.70
2017-08-12T06:29:13.915Z,16.70
2017-08-12T06:31:40.178Z,17.43
2017-08-12T06:34:06.455Z,18.30
2017-08-12T06:36:33.487Z,17.60
2017-08-12T06:38:59.761Z,18.40
2017-08-12T06:41:26.026Z,19.33
2017-08-12T06:43:52.288Z,19.33
2017-08-12T06:46:19.293Z,21.67
2017-08-12T06:48:45.568Z,21.07
2017-08-12T06:51:12.645Z,20.67
2017-08-12T06:53:38.935Z,20.10
2017-08-12T06:56:05.279Z,22.70
2017-08-12T06:58:31.571Z,24.30
2017-08-12T07:00:58.660Z,22.73
2017-08-12T07:03:25.685Z,24.30
2017-08-12T07:05:52.724Z,22.97
2017-08-12T07:08:19.054Z,22.93
2017-08-12T07:10:45.354Z,22.40
2017-08-12T07:13:11.694Z,23.00
2017-08-12T07:15:37.958Z,25.30
2017-08-12T07:18:04.227Z,25.47
2017-08-12T07:20:30.504Z,25.93
2017-08-12T07:22:56.796Z,25.10
2017-08-12T07:25:23.087Z,24.77
2017-08-12T07:27:49.358Z,24.50
2017-08-12T07:30:15.664Z,25.27
2017-08-12T07:32:41.934Z,26.37
2017-08-12T07:35:08.229Z,25.40
2017-08-12T07:37:34.574Z,25.67
2017-08-12T07:40:00.856Z,26.27
2017-08-12T07:42:27.877Z,27.00
2017-08-12T07:44:54.165Z,27.10
2017-08-12T07:47:20.412Z,26.10
2017-08-12T07:49:46.709Z,25.37
2017-08-12T07:52:12.974Z,23.90
2017-08-12T07:54:39.255Z,26.30
2017-08-12T07:57:05.532Z,24.00
2017-08-12T07:59:31.785Z,24.43
2017-08-12T08:01:58.065Z,23.97
2017-08-12T08:04:24.332Z,24.60
2017-08-12T08:06:50.687Z,22.70
2017-08-12T08:09:16.964Z,21.50
2017-08-12T08:11:43.276Z,22.73
2017-08-12T08:14:09.650Z,19.60
2017-08-12T08:16:35.976Z,20.80
2017-08-12T08:19:02.287Z,21.67
2017-08-12T08:21:28.568Z,19.93
2017-08-12T08:23:55.572Z,20.87
2017-08-12T08:26:21.831Z,19.20
2017-08-12T08:28:48.117Z,19.23
2017-08-12T08:31:14.389Z,18.90
2017-08-12T08:33:40.686Z,19.13
2017-08-12T08:36:06.953Z,18.83
2017-08-12T08:38:34.253Z,19.33
2017-08-12T08:41:00.506Z,19.13
2017-08-12T08:43:26.798Z,17.63
2017-08-12T08:45:53.067Z,17.73
2017-08-12T08:48:19.371Z,17.43
2017-08-12T08:50:45.656Z,17.50
2017-08-12T08:53:12.701Z,18.83
2017-08-12T08:55:39.716Z,18.20
2017-08-12T08:58:06.014Z,17.43
2017-08-12T09:00:32.292Z,17.63
2017-08-12T09:02:59.350Z,16.70
2017-08-12T09:05:25.636Z,18.30
2017-08-12T09:07:51.912Z,18.57
2017-08-12T09:10:25.435Z,16.27
2017-08-12T09:12:51.739Z,17.63
2017-08-12T09:15:18.743Z,16.50
2017-08-12T09:17:45.031Z,15.10
2017-08-12T09:20:11.332Z,15.40
2017-08-12T09:22:38.396Z,14.00
2017-08-12T09:25:05.419Z,13.20
2017-08-12T09:27:31.693Z,14.03
2017-08-12T09:29:58.005Z,14.63
2017-08-12T09:32:24.259Z,13.87
2017-08-12T09:34:50.544Z,13.00
2017-08-12T09:37:16.804Z,13.50
2017-08-12T09:39:43.083Z,13.50
2017-08-12T09:42:09.372Z,13.07
2017-08-12T09:44:35.660Z,14.10
2017-08-12T09:47:01.962Z,11.20
2017-08-12T09:49:28.256Z,10.83
2017-08-12T09:51:54.537Z,11.33
2017-08-12T09:54:20.824Z,11.60
2017-08-12T09:56:47.143Z,9.73
2017-08-12T09:59:13.432Z,10.37
2017-08-12T10:01:39.705Z,9.70
2017-08-12T10:04:05.988Z,9.20
2017-08-12T10:06:32.322Z,9.73
2017-08-12T10:08:59.224Z,9.30
2017-08-12T10:11:25.498Z,9.63
2017-08-12T10:13:51.803Z,10.10
2017-08-12T10:16:18.087Z,9.60
2017-08-12T10:18:44.392Z,10.03
2017-08-12T10:21:11.471Z,8.80
2017-08-12T10:23:37.762Z,8.60
2017-08-12T10:26:04.046Z,9.17
2017-08-12T10:28:30.315Z,9.53
2017-08-12T10:30:56.581Z,8.77
2017-08-12T10:33:22.877Z,8.70
2017-08-12T10:35:50.099Z,8.80
2017-08-12T10:38:16.389Z,7.90
2017-08-12T10:40:43.375Z,8.37
2017-08-12T10:43:09.661Z,8.43
2017-08-12T10:45:36.683Z,8.10
2017-08-12T10:48:02.944Z,7.83
2017-08-12T10:50:29.949Z,8.00
2017-08-12T10:52:56.208Z,8.60
2017-08-12T10:55:23.225Z,8.73
2017-08-12T10:57:49.513Z,9.10
2017-08-12T11:00:15.805Z,10.30
2017-08-12T11:02:42.825Z,9.30
2017-08-12T11:05:09.087Z,9.70
2017-08-12T11:07:36.116Z,8.70
2017-08-12T11:10:02.431Z,8.60
2017-08-12T11:12:28.697Z,9.27
2017-08-12T11:14:55.741Z,8.00
2017-08-12T11:17:22.744Z,8.50
2017-08-12T11:19:48.999Z,9.30
2017-08-12T11:22:15.303Z,9.13
2017-08-12T11:24:41.549Z,9.83
2017-08-12T11:27:07.833Z,9.73
2017-08-12T11:29:34.097Z,10.20
2017-08-12T11:32:00.386Z,8.57
2017-08-12T11:34:26.646Z,8.53
2017-08-12T11:36:52.893Z,8.47
2017-08-12T11:39:19.161Z,8.60
2017-08-12T11:41:45.449Z,8.70
2017-08-12T11:44:11.745Z,8.60
2017-08-12T11:46:38.043Z,8.50
2017-08-12T11:49:04.343Z,8.77
2017-08-12T11:51:30.614Z,9.30
2017-08-12T11:53:56.887Z,9.53
2017-08-12T11:56:23.179Z,9.60
2017-08-12T11:58:49.461Z,10.07
2017-08-12T12:01:16.516Z,9.50
2017-08-12T12:03:42.800Z,9.73
2017-08-12T12:06:10.103Z,10.63
2017-08-12T12:08:37.142Z,10.23
2017-08-12T12:11:04.238Z,10.47
2017-08-12T12:13:30.521Z,9.43
2017-08-12T12:15:56.789Z,10.03
2017-08-12T12:18:23.086Z,9.67
2017-08-12T12:20:50.120Z,10.30
2017-08-12T12:23:16.401Z,10.50
2017-08-12T12:25:42.755Z,10.47
2017-08-12T12:28:09.043Z,11.53
2017-08-12T12:30:35.347Z,11.50
2017-08-12T12:33:01.622Z,12.37
2017-08-12T12:35:27.914Z,12.10
2017-08-12T12:37:54.939Z,11.80
2017-08-12T12:40:21.216Z,11.67
2017-08-12T12:42:47.512Z,12.10
2017-08-12T12:45:14.560Z,12.67
2017-08-12T12:47:41.593Z,14.37
2017-08-12T12:50:07.896Z,14.20
2017-08-12T12:52:34.191Z,13.30
2017-08-12T12:55:00.710Z,13.57
2017-08-12T12:57:29.658Z,12.23
2017-08-12T12:59:56.428Z,14.07
2017-08-12T13:02:22.700Z,12.97
2017-08-12T13:04:49.232Z,12.60
2017-08-12T13:07:17.563Z,12.63
2017-08-12T13:09:46.122Z,13.20
2017-08-12T13:12:15.528Z,13.13
2017-08-12T13:14:42.114Z,13.47
2017-08-12T13:17:08.412Z,12.30
2017-08-12T13:19:34.694Z,14.40
2017-08-12T13:22:00.956Z,13.77
2017-08-12T13:24:27.254Z,16.60
2017-08-12T13:26:53.514Z,15.37
2017-08-12T13:29:19.798Z,14.63
2017-08-12T13:31:46.067Z,15.43
2017-08-12T13:34:12.401Z,15.77
2017-08-12T13:36:38.676Z,15.40
2017-08-12T13:39:04.983Z,16.17
2017-08-12T13:41:31.316Z,16.67
2017-08-12T13:43:57.600Z,16.13
2017-08-12T13:46:30.920Z,15.13
2017-08-12T13:48:57.982Z,16.00
2017-08-12T13:51:24.272Z,15.73
2017-08-12T13:53:50.546Z,16.07
2017-08-12T13:56:17.576Z,13.93
2017-08-12T13:58:43.858Z,14.00
2017-08-12T14:01:10.121Z,13.33
2017-08-12T14:03:36.395Z,14.37
2017-08-12T14:06:04.389Z,13.23
2017-08-12T14:08:30.749Z,11.50
2017-08-12T14:10:57.025Z,12.23
2017-08-12T14:13:23.306Z,12.63
2017-08-12T14:15:49.563Z,12.73
2017-08-12T14:18:15.832Z,13.43
2017-08-12T14:20:42.106Z,13.40
2017-08-12T14:23:09.200Z,14.50
2017-08-12T14:25:35.485Z,14.00
2017-08-12T14:28:01.771Z,13.40
2017-08-12T14:30:28.782Z,12.47
2017-08-12T14:32:55.822Z,11.13
2017-08-12T14:35:22.864Z,10.60
2017-08-12T14:37:49.180Z,11.00
2017-08-12T14:40:15.439Z,9.17
2017-08-12T14:42:42.463Z,9.87
2017-08-12T14:45:09.494Z,9.03
2017-08-12T14:47:35.764Z,8.70
2017-08-12T14:50:02.797Z,8.57
2017-08-12T14:52:29.840Z,9.00
2017-08-12T14:54:56.123Z,8.40
2017-08-12T14:57:22.398Z,8.70
2017-08-12T14:59:48.700Z,9.03
2017-08-12T15:02:15.010Z,8.43
2017-08-12T15:04:42.139Z,8.63
2017-08-12T15:07:08.412Z,8.23
2017-08-12T15:09:34.683Z,8.40
2017-08-12T15:12:01.707Z,8.37
2017-08-12T15:14:27.990Z,8.40
2017-08-12T15:16:54.268Z,7.77
2017-08-12T15:19:20.549Z,8.70
2017-08-12T15:21:46.831Z,7.80
2017-08-12T15:24:13.096Z,9.37
2017-08-12T15:26:39.401Z,8.27
2017-08-12T15:29:05.676Z,8.37
2017-08-12T15:31:31.945Z,8.57
2017-08-12T15:33:58.952Z,8.13
2017-08-12T15:36:25.229Z,7.90
2017-08-12T15:38:52.248Z,7.20
2017-08-12T15:41:18.555Z,7.33
2017-08-12T15:43:45.055Z,7.40
2017-08-12T15:46:11.443Z,7.30
2017-08-12T15:48:37.730Z,6.73
2017-08-12T15:51:04.017Z,7.40
2017-08-12T15:53:30.324Z,6.93
2017-08-12T15:55:56.590Z,6.97
2017-08-12T15:58:22.907Z,7.10
2017-08-12T16:00:49.950Z,7.00
2017-08-12T16:03:16.237Z,7.40
2017-08-12T16:05:42.541Z,7.10
2017-08-12T16:08:08.859Z,6.20
2017-08-12T16:10:35.873Z,5.20
2017-08-12T16:13:02.154Z,5.60
2017-08-12T16:15:28.431Z,4.83
2017-08-12T16:17:54.789Z,4.53
2017-08-12T16:20:21.810Z,4.43
2017-08-12T16:22:48.081Z,4.23
2017-08-12T16:25:15.096Z,4.73
2017-08-12T16:27:41.368Z,4.30
2017-08-12T16:30:07.663Z,3.43
2017-08-12T16:32:35.204Z,3.60
2017-08-12T16:35:01.483Z,3.23
2017-08-12T16:37:27.845Z,2.67
2017-08-12T16:39:54.132Z,2.70
2017-08-12T16:42:20.377Z,2.83
2017-08-12T16:44:46.637Z,2.70
2017-08-12T16:47:12.911Z,2.50
2017-08-12T16:49:39.941Z,3.30
2017-08-12T16:52:06.218Z,2.97
2017-08-12T16:54:32.651Z,2.70
2017-08-12T16:56:58.950Z,2.70
2017-08-12T16:59:25.237Z,3.00
2017-08-12T17:01:51.543Z,2.70
2017-08-12T17:04:17.819Z,2.40
2017-08-12T17:06:44.105Z,2.50
2017-08-12T17:09:10.368Z,2.70
2017-08-12T17:11:36.656Z,2.30
2017-08-12T17:14:03.635Z,2.20
2017-08-12T17:16:29.908Z,3.10
2017-08-12T17:18:56.925Z,2.50
2017-08-12T17:21:23.511Z,2.90
2017-08-12T17:23:49.775Z,2.63
2017-08-12T17:26:15.999Z,2.33
2017-08-12T17:28:42.240Z,2.50
2017-08-12T17:31:08.541Z,2.37
2017-08-12T17:33:34.794Z,2.20
2017-08-12T17:36:01.109Z,2.50
2017-08-12T17:38:27.369Z,1.90
2017-08-12T17:40:53.660Z,2.20
2017-08-12T17:43:19.905Z,2.17
2017-08-12T17:45:46.670Z,2.90
2017-08-12T17:48:13.052Z,2.67
2017-08-12T17:50:39.493Z,3.57
2017-08-12T17:53:06.246Z,3.40
2017-08-12T17:55:32.787Z,3.67
2017-08-12T17:57:59.074Z,4.80
2017-08-12T18:00:25.460Z,5.27
2017-08-12T18:02:51.949Z,5.27
2017-08-12T18:05:18.361Z,5.90
2017-08-12T18:07:44.745Z,5.70
2017-08-12T18:10:11.057Z,6.10
2017-08-12T18:12:37.386Z,5.47
2017-08-12T18:15:03.703Z,5.87
2017-08-12T18:17:30.724Z,7.20
2017-08-12T18:19:57.000Z,6.80
2017-08-12T18:22:23.263Z,6.77
2017-08-12T18:24:49.644Z,6.57
2017-08-12T18:27:16.617Z,7.10
2017-08-12T18:29:42.906Z,7.60
2017-08-12T18:32:10.075Z,7.30
2017-08-12T18:34:36.609Z,7.43
2017-08-12T18:37:02.929Z,7.57
2017-08-12T18:39:29.183Z,7.80
2017-08-12T18:41:55.495Z,7.83
2017-08-12T18:44:22.482Z,7.80
2017-08-12T18:46:48.829Z,8.50
2017-08-12T18:49:15.104Z,9.03
2017-08-12T18:51:41.338Z,8.33
2017-08-12T18:54:07.598Z,8.10
2017-08-12T18:56:33.841Z,8.37
2017-08-12T18:59:00.073Z,7.90
2017-08-12T19:01:26.325Z,7.53
2017-08-12T19:03:52.555Z,6.87
2017-08-12T19:06:19.547Z,5.70
2017-08-12T19:08:45.792Z,5.80
2017-08-12T19:11:12.045Z,6.70
2017-08-12T19:13:38.287Z,6.70
2017-08-12T19:16:05.297Z,6.77
2017-08-12T19:18:31.561Z,7.57
2017-08-12T19:20:58.538Z,7.70
2017-08-12T19:23:24.772Z,9.33
2017-08-12T19:25:51.048Z,9.70
2017-08-12T19:28:17.284Z,9.00
2017-08-12T19:30:43.615Z,9.20
2017-08-12T19:33:09.852Z,9.30
2017-08-12T19:35:36.826Z,9.27
2017-08-12T19:38:03.086Z,9.90
2017-08-12T19:40:29.324Z,9.60
2017-08-12T19:42:55.570Z,8.70
2017-08-12T19:45:21.801Z,9.17
2017-08-12T19:47:48.803Z,8.93
2017-08-12T19:50:15.032Z,10.27
2017-08-12T19:52:41.270Z,10.70
2017-08-12T19:55:07.516Z,12.43
2017-08-12T19:57:33.748Z,12.97
2017-08-12T20:00:00.302Z,12.63
2017-08-12T20:02:26.535Z,15.23
2017-08-12T20:04:53.534Z,13.67
2017-08-12T20:07:19.766Z,13.47
2017-08-12T20:09:46.013Z,13.07
2017-08-12T20:12:12.267Z,13.63
2017-08-12T20:14:39.253Z,13.73
2017-08-12T20:17:05.497Z,15.33
2017-08-12T20:19:31.779Z,16.23
2017-08-12T20:21:58.055Z,15.83
2017-08-12T20:24:24.314Z,15.30
2017-08-12T20:26:50.571Z,15.37
2017-08-12T20:29:16.811Z,14.60
2017-08-12T20:31:43.044Z,15.83
2017-08-12T20:34:09.281Z,15.73
2017-08-12T20:36:35.543Z,17.70
2017-08-12T20:39:01.773Z,17.70
2017-08-12T20:41:28.053Z,17.20
2017-08-12T20:43:54.284Z,16.53
2017-08-12T20:46:20.605Z,17.90
2017-08-12T20:48:47.756Z,17.03
2017-08-12T20:51:13.995Z,15.77
2017-08-12T20:53:40.235Z,16.47
2017-08-12T20:56:06.468Z,16.97
2017-08-12T20:58:32.699Z,16.23
2017-08-12T21:00:58.941Z,16.00
2017-08-12T21:03:25.198Z,14.57
2017-08-12T21:05:52.184Z,15.73
2017-08-12T21:08:18.427Z,15.70
2017-08-12T21:10:44.683Z,16.00
2017-08-12T21:13:11.295Z,16.33
2017-08-12T21:15:37.524Z,15.30
2017-08-12T21:18:03.837Z,14.10
2017-08-12T21:20:30.175Z,16.47
2017-08-12T21:22:56.417Z,15.20
2017-08-12T21:25:22.669Z,15.83
2017-08-12T21:27:48.903Z,16.10
2017-08-12T21:30:15.140Z,15.00
2017-08-12T21:32:42.133Z,16.17
2017-08-12T21:35:08.385Z,15.60
2017-08-12T21:37:34.610Z,14.70
2017-08-12T21:40:00.864Z,15.43
2017-08-12T21:42:27.838Z,15.43
2017-08-12T21:44:54.122Z,14.60
2017-08-12T21:47:20.375Z,13.97
2017-08-12T21:49:47.366Z,13.00
2017-08-12T21:52:20.510Z,13.03
2017-08-12T21:54:47.512Z,13.40
2017-08-12T21:57:13.741Z,13.80
2017-08-12T21:59:39.972Z,12.90
2017-08-12T22:02:06.191Z,12.80
2017-08-12T22:04:32.434Z,12.87
2017-08-12T22:06:58.684Z,13.30
2017-08-12T22:09:24.923Z,11.37
2017-08-12T22:11:51.164Z,12.83
2017-08-12T22:14:18.153Z,11.40
2017-08-12T22:16:44.405Z,12.93
2017-08-12T22:19:10.641Z,12.60
2017-08-12T22:21:36.888Z,11.80
2017-08-12T22:24:03.871Z,12.50
2017-08-12T22:26:30.104Z,13.17
2017-08-12T22:28:56.357Z,13.27
2017-08-12T22:31:22.586Z,14.90
2017-08-12T22:33:48.843Z,14.63
2017-08-12T22:36:15.096Z,15.73
2017-08-12T22:38:41.333Z,16.30
2017-08-12T22:41:07.597Z,16.13
2017-08-12T22:43:33.857Z,19.00
2017-08-12T22:46:00.091Z,18.00
2017-08-12T22:48:27.070Z,17.00
2017-08-12T22:50:53.319Z,16.80
2017-08-12T22:53:19.533Z,18.00
2017-08-12T22:55:45.765Z,17.60
2017-08-12T22:58:12.227Z,18.53
2017-08-12T23:00:38.462Z,17.30
2017-08-12T23:03:05.681Z,18.07
2017-08-12T23:05:31.919Z,17.83
2017-08-12T23:07:58.168Z,19.23
2017-08-12T23:10:24.424Z,19.10
2017-08-12T23:12:50.711Z,17.27
2017-08-12T23:15:16.947Z,18.87
2017-08-12T23:17:43.181Z,19.10
2017-08-12T23:20:09.403Z,17.83
2017-08-12T23:22:35.646Z,18.80
2017-08-12T23:25:01.875Z,18.83
2017-08-12T23:27:28.123Z,18.40
2017-08-12T23:29:55.096Z,18.10
2017-08-12T23:32:21.339Z,18.37
2017-08-12T23:34:47.572Z,18.37
2017-08-12T23:37:13.813Z,16.97
2017-08-12T23:39:40.025Z,18.27
2017-08-12T23:42:06.284Z,16.13
2017-08-12T23:44:32.504Z,17.90
2017-08-12T23:46:58.734Z,17.43
2017-08-12T23:49:24.972Z,15.30
2017-08-12T23:51:51.209Z,16.93
2017-08-12T23:54:18.182Z,15.27
2017-08-12T23:56:44.410Z,15.23
2017-08-12T23:59:10.643Z,14.37
